sensor_id;sensor_type;location;lat;lon;timestamp;pressure;altitude;pressure_sealevel;temperature;humidity
54194;BME280;40102;50.906;6.972;2024-01-30T00:02:09;102138.13;;;8.20;91.96
54194;BME280;40102;50.906;6.972;2024-01-30T00:04:34;102144.19;;;8.26;92.02
54194;BME280;40102;50.906;6.972;2024-01-30T00:07:00;102135.31;;;8.26;91.27
54194;BME280;40102;50.906;6.972;2024-01-30T00:09:25;102134.44;;;8.25;91.28
54194;BME280;40102;50.906;6.972;2024-01-30T00:11:51;102125.66;;;8.22;91.34
54194;BME280;40102;50.906;6.972;2024-01-30T00:14:16;102121.19;;;8.22;91.46
54194;BME280;40102;50.906;6.972;2024-01-30T00:16:41;102133.59;;;8.23;91.30
54194;BME280;40102;50.906;6.972;2024-01-30T00:19:07;102124.78;;;8.21;91.38
54194;BME280;40102;50.906;6.972;2024-01-30T00:21:33;102124.69;;;8.24;91.41
54194;BME280;40102;50.906;6.972;2024-01-30T00:23:59;102119.31;;;8.26;91.05
54194;BME280;40102;50.906;6.972;2024-01-30T00:26:24;102122.06;;;8.23;91.14
54194;BME280;40102;50.906;6.972;2024-01-30T00:28:49;102122.00;;;8.26;91.39
54194;BME280;40102;50.906;6.972;2024-01-30T00:31:15;102114.91;;;8.25;91.01
54194;BME280;40102;50.906;6.972;2024-01-30T00:33:41;102116.81;;;8.20;91.08
54194;BME280;40102;50.906;6.972;2024-01-30T00:36:08;102122.28;;;8.13;92.02
54194;BME280;40102;50.906;6.972;2024-01-30T00:38:33;102108.03;;;8.15;91.84
54194;BME280;40102;50.906;6.972;2024-01-30T00:40:59;102116.13;;;8.11;91.83
54194;BME280;40102;50.906;6.972;2024-01-30T00:43:24;102112.69;;;8.06;92.27
54194;BME280;40102;50.906;6.972;2024-01-30T00:45:51;102112.75;;;8.03;92.40
54194;BME280;40102;50.906;6.972;2024-01-30T00:48:18;102117.31;;;7.98;92.79
54194;BME280;40102;50.906;6.972;2024-01-30T00:50:43;102118.88;;;8.07;93.35
54194;BME280;40102;50.906;6.972;2024-01-30T00:53:09;102111.03;;;8.01;92.49
54194;BME280;40102;50.906;6.972;2024-01-30T00:55:35;102118.19;;;7.99;92.87
54194;BME280;40102;50.906;6.972;2024-01-30T00:58:00;102117.34;;;7.97;93.31
54194;BME280;40102;50.906;6.972;2024-01-30T01:00:26;102110.22;;;7.97;93.62
54194;BME280;40102;50.906;6.972;2024-01-30T01:02:55;102112.75;;;8.03;92.69
54194;BME280;40102;50.906;6.972;2024-01-30T01:05:20;102112.75;;;8.03;92.84
54194;BME280;40102;50.906;6.972;2024-01-30T01:07:46;102103.97;;;7.98;92.85
54194;BME280;40102;50.906;6.972;2024-01-30T01:10:13;102112.19;;;7.89;93.18
54194;BME280;40102;50.906;6.972;2024-01-30T01:12:39;102107.94;;;7.80;93.71
54194;BME280;40102;50.906;6.972;2024-01-30T01:15:05;102110.66;;;7.77;94.60
54194;BME280;40102;50.906;6.972;2024-01-30T01:17:31;102113.16;;;7.85;95.24
54194;BME280;40102;50.906;6.972;2024-01-30T01:19:57;102121.06;;;7.90;94.50
54194;BME280;40102;50.906;6.972;2024-01-30T01:22:22;102110.53;;;7.84;94.32
54194;BME280;40102;50.906;6.972;2024-01-30T01:24:48;102107.91;;;7.82;94.64
54194;BME280;40102;50.906;6.972;2024-01-30T01:27:13;102113.09;;;7.88;94.75
54194;BME280;40102;50.906;6.972;2024-01-30T01:29:39;102111.22;;;7.93;94.50
54194;BME280;40102;50.906;6.972;2024-01-30T01:32:05;102107.47;;;8.02;93.92
54194;BME280;40102;50.906;6.972;2024-01-30T01:34:30;102104.88;;;7.99;92.88
54194;BME280;40102;50.906;6.972;2024-01-30T01:36:56;102112.81;;;8.00;92.93
54194;BME280;40102;50.906;6.972;2024-01-30T01:39:22;102112.84;;;7.99;92.88
54194;BME280;40102;50.906;6.972;2024-01-30T01:41:51;102111.13;;;7.96;93.20
54194;BME280;40102;50.906;6.972;2024-01-30T01:44:17;102109.25;;;8.01;93.37
54194;BME280;40102;50.906;6.972;2024-01-30T01:46:43;102109.16;;;8.04;93.35
54194;BME280;40102;50.906;6.972;2024-01-30T01:49:09;102104.81;;;8.00;92.43
54194;BME280;40102;50.906;6.972;2024-01-30T01:51:36;102100.50;;;7.95;93.40
54194;BME280;40102;50.906;6.972;2024-01-30T01:54:04;102112.00;;;7.97;93.45
54194;BME280;40102;50.906;6.972;2024-01-30T01:56:33;102107.59;;;7.96;93.50
54194;BME280;40102;50.906;6.972;2024-01-30T01:59:06;102111.22;;;7.93;93.26
54194;BME280;40102;50.906;6.972;2024-01-30T02:01:33;102102.38;;;7.91;93.75
54194;BME280;40102;50.906;6.972;2024-01-30T02:04:02;102103.09;;;7.98;93.58
54194;BME280;40102;50.906;6.972;2024-01-30T02:06:27;102107.50;;;8.00;93.21
54194;BME280;40102;50.906;6.972;2024-01-30T02:08:54;102104.94;;;7.96;92.94
54194;BME280;40102;50.906;6.972;2024-01-30T02:11:22;102090.69;;;7.97;93.40
54194;BME280;40102;50.906;6.972;2024-01-30T02:13:48;102088.88;;;7.99;93.07
54194;BME280;40102;50.906;6.972;2024-01-30T02:16:14;102087.00;;;8.02;92.63
54194;BME280;40102;50.906;6.972;2024-01-30T02:18:39;102078.97;;;8.04;92.63
54194;BME280;40102;50.906;6.972;2024-01-30T02:21:10;102086.09;;;8.03;92.61
54194;BME280;40102;50.906;6.972;2024-01-30T02:23:36;102086.25;;;7.97;92.89
54194;BME280;40102;50.906;6.972;2024-01-30T02:26:03;102084.50;;;7.96;92.84
54194;BME280;40102;50.906;6.972;2024-01-30T02:28:28;102089.97;;;7.90;93.36
54194;BME280;40102;50.906;6.972;2024-01-30T02:30:53;102083.72;;;7.91;93.88
54194;BME280;40102;50.906;6.972;2024-01-30T02:33:19;102084.50;;;7.96;93.38
54194;BME280;40102;50.906;6.972;2024-01-30T02:35:45;102083.44;;;8.03;93.17
54194;BME280;40102;50.906;6.972;2024-01-30T02:38:10;102088.75;;;8.03;92.98
54194;BME280;40102;50.906;6.972;2024-01-30T02:40:36;102089.66;;;8.04;92.52
54194;BME280;40102;50.906;6.972;2024-01-30T02:43:02;102088.69;;;8.06;92.55
54194;BME280;40102;50.906;6.972;2024-01-30T02:45:28;102088.75;;;8.03;92.86
54194;BME280;40102;50.906;6.972;2024-01-30T02:47:53;102078.91;;;8.07;92.60
54194;BME280;40102;50.906;6.972;2024-01-30T02:50:19;102073.81;;;7.98;93.00
54194;BME280;40102;50.906;6.972;2024-01-30T02:52:44;102073.75;;;7.99;93.20
54194;BME280;40102;50.906;6.972;2024-01-30T02:55:10;102068.44;;;7.99;93.03
54194;BME280;40102;50.906;6.972;2024-01-30T02:57:38;102063.88;;;8.04;92.58
54194;BME280;40102;50.906;6.972;2024-01-30T03:00:05;102069.91;;;8.12;91.85
54194;BME280;40102;50.906;6.972;2024-01-30T03:02:32;102066.25;;;8.17;91.36
54194;BME280;40102;50.906;6.972;2024-01-30T03:05:00;102068.88;;;8.18;90.78
54194;BME280;40102;50.906;6.972;2024-01-30T03:07:26;102064.59;;;8.11;91.29
54194;BME280;40102;50.906;6.972;2024-01-30T03:09:51;102068.19;;;8.10;91.62
54194;BME280;40102;50.906;6.972;2024-01-30T03:12:17;102065.66;;;8.04;91.87
54194;BME280;40102;50.906;6.972;2024-01-30T03:14:43;102054.09;;;8.05;92.20
54194;BME280;40102;50.906;6.972;2024-01-30T03:17:08;102061.13;;;8.07;92.16
54194;BME280;40102;50.906;6.972;2024-01-30T03:19:33;102057.38;;;8.16;92.17
54194;BME280;40102;50.906;6.972;2024-01-30T03:22:02;102064.31;;;8.23;90.89
54194;BME280;40102;50.906;6.972;2024-01-30T03:24:27;102063.50;;;8.20;90.59
54194;BME280;40102;50.906;6.972;2024-01-30T03:26:53;102062.75;;;8.15;91.06
54194;BME280;40102;50.906;6.972;2024-01-30T03:29:18;102053.13;;;8.07;91.60
54194;BME280;40102;50.906;6.972;2024-01-30T03:31:44;102045.97;;;8.09;91.83
54194;BME280;40102;50.906;6.972;2024-01-30T03:34:09;102044.09;;;8.15;91.31
54194;BME280;40102;50.906;6.972;2024-01-30T03:36:34;102049.28;;;8.19;90.97
54194;BME280;40102;50.906;6.972;2024-01-30T03:39:00;102043.22;;;8.14;90.68
54194;BME280;40102;50.906;6.972;2024-01-30T03:41:26;102040.63;;;8.11;91.44
54194;BME280;40102;50.906;6.972;2024-01-30T03:43:54;102043.41;;;8.06;91.63
54194;BME280;40102;50.906;6.972;2024-01-30T03:46:20;102044.41;;;8.01;91.67
54194;BME280;40102;50.906;6.972;2024-01-30T03:48:45;102055.19;;;7.96;92.18
54194;BME280;40102;50.906;6.972;2024-01-30T03:51:11;102038.31;;;7.96;92.55
54194;BME280;40102;50.906;6.972;2024-01-30T03:53:41;102036.44;;;8.01;92.21
54194;BME280;40102;50.906;6.972;2024-01-30T03:56:07;102048.75;;;8.05;91.60
54194;BME280;40102;50.906;6.972;2024-01-30T03:58:33;102046.31;;;7.96;91.65
54194;BME280;40102;50.906;6.972;2024-01-30T04:00:59;102043.84;;;7.88;92.49
54194;BME280;40102;50.906;6.972;2024-01-30T04:03:24;102050.50;;;7.69;93.69
54194;BME280;40102;50.906;6.972;2024-01-30T04:05:51;102047.09;;;7.62;94.12
54194;BME280;40102;50.906;6.972;2024-01-30T04:08:17;102044.47;;;7.61;94.48
54194;BME280;40102;50.906;6.972;2024-01-30T04:10:43;102039.19;;;7.59;94.61
54194;BME280;40102;50.906;6.972;2024-01-30T04:13:08;102032.06;;;7.60;94.67
54194;BME280;40102;50.906;6.972;2024-01-30T04:15:34;102031.00;;;7.67;94.14
54194;BME280;40102;50.906;6.972;2024-01-30T04:18:00;102024.78;;;7.68;94.44
54194;BME280;40102;50.906;6.972;2024-01-30T04:20:26;102031.03;;;7.65;94.17
54194;BME280;40102;50.906;6.972;2024-01-30T04:22:51;102023.03;;;7.67;94.16
54194;BME280;40102;50.906;6.972;2024-01-30T04:25:16;102030.28;;;7.60;94.32
54194;BME280;40102;50.906;6.972;2024-01-30T04:27:42;102044.44;;;7.62;94.92
54194;BME280;40102;50.906;6.972;2024-01-30T04:30:08;102026.53;;;7.69;94.37
54194;BME280;40102;50.906;6.972;2024-01-30T04:32:34;102023.91;;;7.67;94.14
54194;BME280;40102;50.906;6.972;2024-01-30T04:35:04;102029.25;;;7.66;94.17
54194;BME280;40102;50.906;6.972;2024-01-30T04:37:29;102037.22;;;7.67;94.52
54194;BME280;40102;50.906;6.972;2024-01-30T04:39:54;102025.75;;;7.64;94.68
54194;BME280;40102;50.906;6.972;2024-01-30T04:42:20;102023.03;;;7.67;94.52
54194;BME280;40102;50.906;6.972;2024-01-30T04:44:45;102022.03;;;7.71;94.41
54194;BME280;40102;50.906;6.972;2024-01-30T04:47:11;102024.41;;;7.83;93.25
54194;BME280;40102;50.906;6.972;2024-01-30T04:49:39;102029.72;;;7.85;92.54
54194;BME280;40102;50.906;6.972;2024-01-30T04:52:05;102030.69;;;7.80;93.29
54194;BME280;40102;50.906;6.972;2024-01-30T04:54:31;102031.56;;;7.81;93.47
54194;BME280;40102;50.906;6.972;2024-01-30T04:56:56;102032.53;;;7.78;93.45
54194;BME280;40102;50.906;6.972;2024-01-30T04:59:22;102048.63;;;7.72;94.05
54194;BME280;40102;50.906;6.972;2024-01-30T05:01:47;102043.38;;;7.69;93.81
54194;BME280;40102;50.906;6.972;2024-01-30T05:04:13;102039.06;;;7.64;94.63
54194;BME280;40102;50.906;6.972;2024-01-30T05:06:38;102036.41;;;7.64;94.52
54194;BME280;40102;50.906;6.972;2024-01-30T05:09:03;102032.19;;;7.54;94.79
54194;BME280;40102;50.906;6.972;2024-01-30T05:11:30;102034.72;;;7.60;95.47
54194;BME280;40102;50.906;6.972;2024-01-30T05:13:55;102039.09;;;7.62;94.89
54194;BME280;40102;50.906;6.972;2024-01-30T05:16:20;102029.38;;;7.61;94.36
54194;BME280;40102;50.906;6.972;2024-01-30T05:18:46;102031.19;;;7.59;94.47
54194;BME280;40102;50.906;6.972;2024-01-30T05:21:11;102029.44;;;7.58;94.32
54194;BME280;40102;50.906;6.972;2024-01-30T05:23:36;102031.28;;;7.55;94.99
54194;BME280;40102;50.906;6.972;2024-01-30T05:26:02;102032.19;;;7.54;94.89
54194;BME280;40102;50.906;6.972;2024-01-30T05:28:29;102031.34;;;7.52;95.18
54194;BME280;40102;50.906;6.972;2024-01-30T05:30:55;102035.75;;;7.54;95.47
54194;BME280;40102;50.906;6.972;2024-01-30T05:33:21;102033.94;;;7.55;94.41
54194;BME280;40102;50.906;6.972;2024-01-30T05:35:46;102030.44;;;7.53;94.98
54194;BME280;40102;50.906;6.972;2024-01-30T05:38:11;102019.81;;;7.53;94.47
54194;BME280;40102;50.906;6.972;2024-01-30T05:40:37;102026.06;;;7.50;94.85
54194;BME280;40102;50.906;6.972;2024-01-30T05:43:03;102024.19;;;7.55;94.76
54194;BME280;40102;50.906;6.972;2024-01-30T05:45:28;102023.00;;;7.68;93.54
54194;BME280;40102;50.906;6.972;2024-01-30T05:47:54;102022.06;;;7.69;92.89
54194;BME280;40102;50.906;6.972;2024-01-30T05:50:19;102015.88;;;7.69;92.49
54194;BME280;40102;50.906;6.972;2024-01-30T05:52:45;102024.00;;;7.63;93.58
54194;BME280;40102;50.906;6.972;2024-01-30T05:55:11;102029.25;;;7.66;92.64
54194;BME280;40102;50.906;6.972;2024-01-30T05:57:37;102021.66;;;7.49;94.46
54194;BME280;40102;50.906;6.972;2024-01-30T06:00:04;102027.84;;;7.50;94.48
54194;BME280;40102;50.906;6.972;2024-01-30T06:02:31;102017.13;;;7.53;94.52
54194;BME280;40102;50.906;6.972;2024-01-30T06:04:56;102026.88;;;7.54;94.15
54194;BME280;40102;50.906;6.972;2024-01-30T06:07:21;102013.66;;;7.49;94.61
54194;BME280;40102;50.906;6.972;2024-01-30T06:09:47;102027.75;;;7.54;94.60
54194;BME280;40102;50.906;6.972;2024-01-30T06:12:12;102020.75;;;7.50;93.89
54194;BME280;40102;50.906;6.972;2024-01-30T06:14:38;102021.69;;;7.47;95.04
54194;BME280;40102;50.906;6.972;2024-01-30T06:17:03;102018.25;;;7.42;95.00
54194;BME280;40102;50.906;6.972;2024-01-30T06:19:30;102018.25;;;7.42;95.08
54194;BME280;40102;50.906;6.972;2024-01-30T06:21:55;102023.53;;;7.44;95.41
54194;BME280;40102;50.906;6.972;2024-01-30T06:24:20;102019.84;;;7.51;94.74
54194;BME280;40102;50.906;6.972;2024-01-30T06:26:46;102016.41;;;7.46;94.43
54194;BME280;40102;50.906;6.972;2024-01-30T06:29:12;102014.69;;;7.43;95.03
54194;BME280;40102;50.906;6.972;2024-01-30T06:31:40;102013.69;;;7.47;95.00
54194;BME280;40102;50.906;6.972;2024-01-30T06:34:09;102004.03;;;7.82;100.00
54194;BME280;40102;50.906;6.972;2024-01-30T06:36:35;102002.44;;;8.10;96.68
54194;BME280;40102;50.906;6.972;2024-01-30T06:39:02;102004.75;;;8.24;96.66
54194;BME280;40102;50.906;6.972;2024-01-30T06:41:27;101996.75;;;8.24;92.49
54194;BME280;40102;50.906;6.972;2024-01-30T06:43:53;101998.34;;;8.33;93.60
54194;BME280;40102;50.906;6.972;2024-01-30T06:46:18;101993.59;;;8.44;91.84
54194;BME280;40102;50.906;6.972;2024-01-30T06:48:43;102002.75;;;8.32;91.05
54194;BME280;40102;50.906;6.972;2024-01-30T06:51:10;101995.63;;;8.34;92.69
54194;BME280;40102;50.906;6.972;2024-01-30T06:53:36;101998.34;;;8.31;90.39
54194;BME280;40102;50.906;6.972;2024-01-30T06:56:02;101990.75;;;8.16;90.28
54194;BME280;40102;50.906;6.972;2024-01-30T06:58:27;102000.03;;;8.00;91.06
54194;BME280;40102;50.906;6.972;2024-01-30T07:00:54;101993.41;;;7.80;92.43
54194;BME280;40102;50.906;6.972;2024-01-30T07:03:19;102003.44;;;7.69;93.01
54194;BME280;40102;50.906;6.972;2024-01-30T07:05:45;102007.13;;;7.64;93.56
54194;BME280;40102;50.906;6.972;2024-01-30T07:08:10;102018.75;;;7.60;93.90
54194;BME280;40102;50.906;6.972;2024-01-30T07:10:36;102026.88;;;7.54;94.44
54194;BME280;40102;50.906;6.972;2024-01-30T07:13:01;102020.03;;;7.42;95.16
54194;BME280;40102;50.906;6.972;2024-01-30T07:15:27;102020.97;;;7.39;95.08
54194;BME280;40102;50.906;6.972;2024-01-30T07:17:53;102011.19;;;7.41;95.73
54194;BME280;40102;50.906;6.972;2024-01-30T07:20:18;102020.91;;;7.42;95.28
54194;BME280;40102;50.906;6.972;2024-01-30T07:22:45;102021.97;;;7.35;95.83
54194;BME280;40102;50.906;6.972;2024-01-30T07:25:11;102024.56;;;7.38;96.15
54194;BME280;40102;50.906;6.972;2024-01-30T07:27:36;102034.25;;;7.41;95.75
54194;BME280;40102;50.906;6.972;2024-01-30T07:30:02;102026.16;;;7.45;95.71
54194;BME280;40102;50.906;6.972;2024-01-30T07:32:28;102020.84;;;7.45;95.62
54194;BME280;40102;50.906;6.972;2024-01-30T07:34:53;102041.09;;;7.53;94.96
54194;BME280;40102;50.906;6.972;2024-01-30T07:37:19;102025.88;;;7.59;94.31
54194;BME280;40102;50.906;6.972;2024-01-30T07:39:44;102038.25;;;7.60;94.45
54194;BME280;40102;50.906;6.972;2024-01-30T07:42:10;102046.28;;;7.59;94.38
54194;BME280;40102;50.906;6.972;2024-01-30T07:44:35;102037.53;;;7.54;94.77
54194;BME280;40102;50.906;6.972;2024-01-30T07:47:01;102034.03;;;7.52;95.27
54194;BME280;40102;50.906;6.972;2024-01-30T07:49:28;102044.56;;;7.56;95.19
54194;BME280;40102;50.906;6.972;2024-01-30T07:51:53;102035.78;;;7.53;95.06
54194;BME280;40102;50.906;6.972;2024-01-30T07:54:19;102039.53;;;7.42;95.69
54194;BME280;40102;50.906;6.972;2024-01-30T08:03:27;102045.09;;;7.32;97.28
54194;BME280;40102;50.906;6.972;2024-01-30T08:05:53;102052.97;;;7.38;97.40
54194;BME280;40102;50.906;6.972;2024-01-30T08:08:18;102056.47;;;7.40;96.69
54194;BME280;40102;50.906;6.972;2024-01-30T08:10:44;102051.09;;;7.41;97.18
54194;BME280;40102;50.906;6.972;2024-01-30T08:13:09;102049.19;;;7.48;96.91
54194;BME280;40102;50.906;6.972;2024-01-30T08:15:35;102054.38;;;7.54;96.38
54194;BME280;40102;50.906;6.972;2024-01-30T08:18:00;102049.88;;;7.58;95.66
54194;BME280;40102;50.906;6.972;2024-01-30T08:20:26;102046.38;;;7.54;96.03
54194;BME280;40102;50.906;6.972;2024-01-30T08:22:52;102053.44;;;7.57;96.12
54194;BME280;40102;50.906;6.972;2024-01-30T08:25:17;102059.56;;;7.60;96.01
54194;BME280;40102;50.906;6.972;2024-01-30T08:27:43;102048.88;;;7.62;95.61
54194;BME280;40102;50.906;6.972;2024-01-30T08:30:09;102041.72;;;7.64;95.65
54194;BME280;40102;50.906;6.972;2024-01-30T08:32:35;102039.81;;;7.70;95.06
54194;BME280;40102;50.906;6.972;2024-01-30T08:35:00;102027.25;;;7.75;94.72
54194;BME280;40102;50.906;6.972;2024-01-30T08:37:29;102042.28;;;7.78;94.37
54194;BME280;40102;50.906;6.972;2024-01-30T08:39:58;102037.88;;;7.77;94.10
54194;BME280;40102;50.906;6.972;2024-01-30T08:42:23;102039.69;;;7.75;94.47
54194;BME280;40102;50.906;6.972;2024-01-30T08:44:49;102039.84;;;7.69;95.18
54194;BME280;40102;50.906;6.972;2024-01-30T08:47:16;102041.63;;;7.68;95.58
54194;BME280;40102;50.906;6.972;2024-01-30T08:49:43;102053.22;;;7.66;95.48
54194;BME280;40102;50.906;6.972;2024-01-30T08:52:09;102062.13;;;7.65;95.95
54194;BME280;40102;50.906;6.972;2024-01-30T08:54:35;102067.47;;;7.65;96.09
54194;BME280;40102;50.906;6.972;2024-01-30T08:57:00;102068.25;;;7.68;95.66
54194;BME280;40102;50.906;6.972;2024-01-30T08:59:26;102066.47;;;7.69;96.11
54194;BME280;40102;50.906;6.972;2024-01-30T09:01:51;102068.13;;;7.74;96.28
54194;BME280;40102;50.906;6.972;2024-01-30T09:04:20;102070.69;;;7.79;95.67
54194;BME280;40102;50.906;6.972;2024-01-30T09:06:45;102067.19;;;7.77;95.71
54194;BME280;40102;50.906;6.972;2024-01-30T09:09:11;102072.28;;;7.86;95.25
54194;BME280;40102;50.906;6.972;2024-01-30T09:11:36;102073.09;;;7.90;94.64
54194;BME280;40102;50.906;6.972;2024-01-30T09:14:02;102080.16;;;7.92;94.45
54194;BME280;40102;50.906;6.972;2024-01-30T09:16:28;102075.69;;;7.93;94.45
54194;BME280;40102;50.906;6.972;2024-01-30T09:18:53;102080.94;;;7.96;94.32
54194;BME280;40102;50.906;6.972;2024-01-30T09:21:19;102077.28;;;8.01;94.04
54194;BME280;40102;50.906;6.972;2024-01-30T09:23:44;102086.06;;;8.05;94.07
54194;BME280;40102;50.906;6.972;2024-01-30T09:26:09;102090.44;;;8.07;94.29
54194;BME280;40102;50.906;6.972;2024-01-30T09:28:35;102106.38;;;8.10;94.20
54194;BME280;40102;50.906;6.972;2024-01-30T09:31:01;102093.03;;;8.10;94.42
54194;BME280;40102;50.906;6.972;2024-01-30T09:33:26;102087.72;;;8.10;94.67
54194;BME280;40102;50.906;6.972;2024-01-30T09:35:51;102101.91;;;8.11;94.89
54194;BME280;40102;50.906;6.972;2024-01-30T09:38:17;102100.94;;;8.15;94.80
54194;BME280;40102;50.906;6.972;2024-01-30T09:40:42;102112.47;;;8.16;95.12
54194;BME280;40102;50.906;6.972;2024-01-30T09:43:11;102100.84;;;8.18;95.24
54194;BME280;40102;50.906;6.972;2024-01-30T09:45:42;102104.41;;;8.19;95.45
54194;BME280;40102;50.906;6.972;2024-01-30T09:48:10;102119.44;;;8.21;95.71
54194;BME280;40102;50.906;6.972;2024-01-30T09:50:36;102118.53;;;8.22;95.67
54194;BME280;40102;50.906;6.972;2024-01-30T09:53:03;102120.13;;;8.29;95.40
54194;BME280;40102;50.906;6.972;2024-01-30T09:55:29;102113.88;;;8.30;95.60
54194;BME280;40102;50.906;6.972;2024-01-30T09:57:54;102113.91;;;8.29;95.85
54194;BME280;40102;50.906;6.972;2024-01-30T10:00:20;102112.16;;;8.28;95.79
54194;BME280;40102;50.906;6.972;2024-01-30T10:02:48;102115.63;;;8.31;95.55
54194;BME280;40102;50.906;6.972;2024-01-30T10:05:15;102112.97;;;8.33;95.52
54194;BME280;40102;50.906;6.972;2024-01-30T10:07:52;102116.47;;;8.35;95.85
54194;BME280;40102;50.906;6.972;2024-01-30T10:10:17;102125.28;;;8.38;95.71
54194;BME280;40102;50.906;6.972;2024-01-30T10:12:43;102118.16;;;8.39;95.94
54194;BME280;40102;50.906;6.972;2024-01-30T10:15:09;102114.63;;;8.38;96.23
54194;BME280;40102;50.906;6.972;2024-01-30T10:17:37;102131.41;;;8.42;96.11
54194;BME280;40102;50.906;6.972;2024-01-30T10:20:04;102125.09;;;8.46;96.05
54194;BME280;40102;50.906;6.972;2024-01-30T10:22:30;102125.94;;;8.48;95.93
54194;BME280;40102;50.906;6.972;2024-01-30T10:24:55;102121.41;;;8.52;96.10
54194;BME280;40102;50.906;6.972;2024-01-30T10:27:27;102110.72;;;8.52;96.05
54194;BME280;40102;50.906;6.972;2024-01-30T10:29:54;102121.16;;;8.61;95.74
54194;BME280;40102;50.906;6.972;2024-01-30T10:32:20;102119.38;;;8.61;95.44
54194;BME280;40102;50.906;6.972;2024-01-30T10:34:46;102117.53;;;8.63;95.31
54194;BME280;40102;50.906;6.972;2024-01-30T10:37:11;102113.97;;;8.64;95.40
54194;BME280;40102;50.906;6.972;2024-01-30T10:39:46;102106.78;;;8.66;95.54
54194;BME280;40102;50.906;6.972;2024-01-30T10:42:17;102118.31;;;8.68;95.36
54194;BME280;40102;50.906;6.972;2024-01-30T10:45:08;102113.84;;;8.69;95.65
54194;BME280;40102;50.906;6.972;2024-01-30T10:47:34;102105.81;;;8.70;95.98
54194;BME280;40102;50.906;6.972;2024-01-30T10:50:02;102105.72;;;8.73;96.52
54194;BME280;40102;50.906;6.972;2024-01-30T10:52:29;102105.72;;;8.73;96.96
54194;BME280;40102;50.906;6.972;2024-01-30T10:54:55;102100.34;;;8.75;97.01
54194;BME280;40102;50.906;6.972;2024-01-30T10:57:25;102104.69;;;8.79;96.87
54194;BME280;40102;50.906;6.972;2024-01-30T10:59:58;102107.31;;;8.81;96.47
54194;BME280;40102;50.906;6.972;2024-01-30T11:02:25;102103.66;;;8.85;96.23
54194;BME280;40102;50.906;6.972;2024-01-30T11:04:55;102107.97;;;8.89;96.15
54194;BME280;40102;50.906;6.972;2024-01-30T11:07:29;102107.94;;;8.90;95.92
54194;BME280;40102;50.906;6.972;2024-01-30T11:12:24;102088.34;;;8.91;95.94
54194;BME280;40102;50.906;6.972;2024-01-30T11:15:00;102087.47;;;8.91;96.79
54194;BME280;40102;50.906;6.972;2024-01-30T11:17:28;102096.28;;;8.94;97.03
54194;BME280;40102;50.906;6.972;2024-01-30T11:19:53;102103.34;;;8.95;97.47
54194;BME280;40102;50.906;6.972;2024-01-30T11:22:20;102090.06;;;8.94;97.14
54194;BME280;40102;50.906;6.972;2024-01-30T11:24:46;102097.97;;;8.97;97.09
54194;BME280;40102;50.906;6.972;2024-01-30T11:27:12;102095.28;;;8.98;97.56
54194;BME280;40102;50.906;6.972;2024-01-30T11:29:40;102095.22;;;9.00;98.05
54194;BME280;40102;50.906;6.972;2024-01-30T11:32:05;102094.25;;;9.02;98.53
54194;BME280;40102;50.906;6.972;2024-01-30T11:34:32;102098.69;;;9.03;98.45
54194;BME280;40102;50.906;6.972;2024-01-30T11:37:03;102107.47;;;9.07;98.43
54194;BME280;40102;50.906;6.972;2024-01-30T11:39:35;102100.28;;;9.11;98.33
54194;BME280;40102;50.906;6.972;2024-01-30T11:42:03;102097.56;;;9.12;97.98
54194;BME280;40102;50.906;6.972;2024-01-30T11:44:30;102091.31;;;9.13;97.98
54194;BME280;40102;50.906;6.972;2024-01-30T11:46:56;102082.38;;;9.14;97.85
54194;BME280;40102;50.906;6.972;2024-01-30T11:49:25;102088.53;;;9.16;97.96
54194;BME280;40102;50.906;6.972;2024-01-30T11:51:50;102084.91;;;9.19;98.00
54194;BME280;40102;50.906;6.972;2024-01-30T11:54:16;102073.22;;;9.23;98.07
54194;BME280;40102;50.906;6.972;2024-01-30T11:56:42;102083.78;;;9.27;97.84
54194;BME280;40102;50.906;6.972;2024-01-30T11:59:08;102093.44;;;9.31;97.31
54194;BME280;40102;50.906;6.972;2024-01-30T12:01:34;102091.69;;;9.30;97.31
54194;BME280;40102;50.906;6.972;2024-01-30T12:03:59;102096.94;;;9.33;97.56
54194;BME280;40102;50.906;6.972;2024-01-30T12:06:28;102091.69;;;9.30;97.74
54194;BME280;40102;50.906;6.972;2024-01-30T12:09:02;102093.28;;;9.37;97.94
54194;BME280;40102;50.906;6.972;2024-01-30T12:11:31;102094.19;;;9.36;98.10
54194;BME280;40102;50.906;6.972;2024-01-30T12:13:56;102094.19;;;9.36;97.65
54194;BME280;40102;50.906;6.972;2024-01-30T12:16:22;102098.63;;;9.37;97.41
54194;BME280;40102;50.906;6.972;2024-01-30T12:18:48;102094.19;;;9.36;97.56
54194;BME280;40102;50.906;6.972;2024-01-30T12:21:16;102096.81;;;9.38;98.03
54194;BME280;40102;50.906;6.972;2024-01-30T12:23:41;102090.50;;;9.40;98.34
54194;BME280;40102;50.906;6.972;2024-01-30T12:26:07;102098.53;;;9.40;98.43
54194;BME280;40102;50.906;6.972;2024-01-30T12:28:33;102102.13;;;9.39;98.50
54194;BME280;40102;50.906;6.972;2024-01-30T12:31:02;102087.88;;;9.39;98.60
54194;BME280;40102;50.906;6.972;2024-01-30T12:33:28;102095.91;;;9.39;98.67
54194;BME280;40102;50.906;6.972;2024-01-30T12:35:54;102096.78;;;9.39;98.56
54194;BME280;40102;50.906;6.972;2024-01-30T12:38:20;102098.47;;;9.42;98.44
54194;BME280;40102;50.906;6.972;2024-01-30T12:40:45;102102.91;;;9.43;98.23
54194;BME280;40102;50.906;6.972;2024-01-30T12:43:13;102104.66;;;9.44;98.44
54194;BME280;40102;50.906;6.972;2024-01-30T12:45:39;102099.25;;;9.46;98.62
54194;BME280;40102;50.906;6.972;2024-01-30T12:48:04;102108.94;;;9.50;98.94
54194;BME280;40102;50.906;6.972;2024-01-30T12:50:30;102108.75;;;9.56;99.12
54194;BME280;40102;50.906;6.972;2024-01-30T12:52:55;102109.53;;;9.59;99.08
54194;BME280;40102;50.906;6.972;2024-01-30T12:55:21;102117.41;;;9.64;99.09
54194;BME280;40102;50.906;6.972;2024-01-30T12:57:46;102104.03;;;9.65;98.95
54194;BME280;40102;50.906;6.972;2024-01-30T13:00:12;102119.88;;;9.71;98.78
54194;BME280;40102;50.906;6.972;2024-01-30T13:02:37;102108.31;;;9.71;98.84
54194;BME280;40102;50.906;6.972;2024-01-30T13:05:03;102113.47;;;9.77;98.68